createdAt,value
2022-12-15T00:03:10.934Z,22.73
2022-12-15T00:06:33.556Z,22.07
2022-12-15T00:09:54.853Z,21.90
2022-12-15T00:13:16.029Z,22.30
2022-12-15T00:16:36.786Z,21.53
2022-12-15T00:19:57.849Z,22.47
2022-12-15T00:23:27.964Z,21.33
2022-12-15T00:26:49.417Z,21.33
2022-12-15T00:30:10.471Z,21.03
2022-12-15T00:33:31.609Z,22.00
2022-12-15T00:36:52.620Z,20.13
2022-12-15T00:40:00.206Z,21.77
2022-12-15T00:43:04.241Z,22.20
2022-12-15T00:46:25.684Z,22.43
2022-12-15T00:49:48.222Z,25.73
2022-12-15T00:53:09.277Z,21.90
2022-12-15T00:56:32.067Z,56.87
2022-12-15T00:59:53.227Z,20.73
2022-12-15T01:03:14.423Z,26.70
2022-12-15T01:06:38.656Z,20.90
2022-12-15T01:09:59.735Z,27.33
2022-12-15T01:13:23.249Z,21.70
2022-12-15T01:16:44.307Z,20.50
2022-12-15T01:20:05.271Z,20.97
2022-12-15T01:23:09.016Z,43.40
2022-12-15T01:26:12.790Z,23.00
2022-12-15T01:29:17.989Z,23.30
2022-12-15T01:32:21.750Z,25.73
2022-12-15T01:35:27.017Z,26.73
2022-12-15T01:38:30.967Z,27.47
2022-12-15T01:41:33.451Z,29.50
2022-12-15T01:44:39.651Z,23.07
2022-12-15T01:47:44.019Z,26.87
2022-12-15T01:50:55.019Z,23.73
2022-12-15T01:54:04.551Z,25.47
2022-12-15T01:57:12.166Z,27.37
2022-12-15T02:00:17.729Z,30.10
2022-12-15T02:03:21.872Z,31.60
2022-12-15T02:06:27.933Z,27.27
2022-12-15T02:09:32.381Z,28.43
2022-12-15T02:12:41.797Z,33.03
2022-12-15T02:15:52.758Z,29.93
2022-12-15T02:19:04.689Z,31.40
2022-12-15T02:22:24.596Z,28.20
2022-12-15T02:25:50.753Z,28.73
2022-12-15T02:29:04.197Z,28.23
2022-12-15T02:32:13.714Z,32.00
2022-12-15T02:35:22.029Z,26.53
2022-12-15T02:38:33.905Z,28.10
2022-12-15T02:41:39.840Z,26.47
2022-12-15T02:44:48.729Z,27.47
2022-12-15T02:48:05.390Z,27.73
2022-12-15T02:51:27.630Z,29.53
2022-12-15T02:54:42.679Z,32.07
2022-12-15T02:57:54.676Z,30.23
2022-12-15T03:01:03.415Z,31.27
2022-12-15T03:04:12.181Z,29.10
2022-12-15T03:07:16.103Z,30.47
2022-12-15T03:10:21.699Z,29.40
2022-12-15T03:13:25.596Z,29.50
2022-12-15T03:16:29.456Z,27.00
2022-12-15T03:19:34.651Z,30.77
2022-12-15T03:22:39.436Z,30.30
2022-12-15T03:25:43.177Z,27.47
2022-12-15T03:28:46.870Z,19.90
2022-12-15T03:31:50.577Z,27.10
2022-12-15T03:34:55.740Z,22.43
2022-12-15T03:37:59.518Z,22.80
2022-12-15T03:41:03.265Z,27.53
2022-12-15T03:44:07.178Z,32.53
2022-12-15T03:47:10.938Z,32.63
2022-12-15T03:50:18.100Z,26.70
2022-12-15T03:53:21.900Z,23.87
2022-12-15T03:56:25.502Z,23.93
2022-12-15T03:59:29.269Z,25.00
2022-12-15T04:02:33.185Z,26.20
2022-12-15T04:05:39.131Z,24.77
2022-12-15T04:08:42.887Z,23.87
2022-12-15T04:11:46.677Z,24.33
2022-12-15T04:14:50.251Z,23.60
2022-12-15T04:17:54.077Z,24.73
2022-12-15T04:20:59.296Z,24.80
2022-12-15T04:24:20.496Z,24.10
2022-12-15T04:27:41.686Z,23.80
2022-12-15T04:31:06.540Z,24.90
2022-12-15T04:34:32.781Z,25.80
2022-12-15T04:37:55.475Z,25.60
2022-12-15T04:41:16.686Z,25.27
2022-12-15T04:44:37.821Z,26.67
2022-12-15T04:47:59.338Z,23.13
2022-12-15T04:51:20.288Z,25.10
2022-12-15T04:54:42.464Z,24.83
2022-12-15T04:58:03.216Z,24.93
2022-12-15T05:01:24.767Z,25.13
2022-12-15T05:04:45.877Z,23.47
2022-12-15T05:08:06.931Z,24.73
2022-12-15T05:11:29.495Z,25.07
2022-12-15T05:14:50.681Z,25.47
2022-12-15T05:18:11.820Z,26.37
2022-12-15T05:21:32.917Z,26.33
2022-12-15T05:24:53.655Z,24.60
2022-12-15T05:28:15.786Z,24.87
2022-12-15T05:31:36.896Z,24.47
2022-12-15T05:34:40.702Z,25.73
2022-12-15T05:37:44.524Z,27.07
2022-12-15T05:40:48.136Z,26.63
2022-12-15T05:43:53.376Z,27.47
2022-12-15T05:46:57.140Z,27.90
2022-12-15T05:50:01.089Z,26.70
2022-12-15T05:53:04.796Z,28.10
2022-12-15T05:56:10.626Z,26.13
2022-12-15T05:59:16.799Z,24.77
2022-12-15T06:02:20.653Z,25.73
2022-12-15T06:05:24.618Z,26.07
2022-12-15T06:08:28.670Z,26.97
2022-12-15T06:11:32.407Z,24.87
2022-12-15T06:14:37.848Z,24.80
2022-12-15T06:17:41.637Z,27.03
2022-12-15T06:20:45.470Z,24.73
2022-12-15T06:23:54.476Z,24.37
2022-12-15T06:26:58.177Z,22.33
2022-12-15T06:30:03.353Z,24.33
2022-12-15T06:33:07.617Z,23.90
2022-12-15T06:36:13.827Z,23.63
2022-12-15T06:39:18.126Z,22.90
2022-12-15T06:42:22.046Z,23.73
2022-12-15T06:45:27.406Z,21.17
2022-12-15T06:48:31.856Z,21.23
2022-12-15T06:51:35.573Z,23.33
2022-12-15T06:54:39.230Z,21.83
2022-12-15T06:57:43.026Z,23.53
2022-12-15T07:00:48.390Z,23.07
2022-12-15T07:03:54.664Z,24.00
2022-12-15T07:06:58.636Z,23.60
2022-12-15T07:10:02.436Z,22.40
2022-12-15T07:13:06.206Z,21.97
2022-12-15T07:16:12.990Z,20.63
2022-12-15T07:19:16.727Z,21.43
2022-12-15T07:22:21.215Z,22.10
2022-12-15T07:25:25.176Z,21.73
2022-12-15T07:28:29.112Z,18.53
2022-12-15T07:31:34.496Z,21.50
2022-12-15T07:34:38.310Z,20.23
2022-12-15T07:37:42.097Z,21.47
2022-12-15T07:40:45.899Z,19.80
2022-12-15T07:43:49.796Z,19.80
2022-12-15T07:46:55.084Z,18.97
2022-12-15T07:49:59.111Z,20.73
2022-12-15T07:53:02.838Z,17.60
2022-12-15T07:56:09.550Z,19.37
2022-12-15T07:59:14.320Z,19.90
2022-12-15T08:02:20.193Z,18.77
2022-12-15T08:05:24.132Z,19.60
2022-12-15T08:08:27.856Z,21.47
2022-12-15T08:11:35.311Z,19.10
2022-12-15T08:14:39.126Z,18.60
2022-12-15T08:17:46.789Z,17.83
2022-12-15T08:20:51.152Z,17.67
2022-12-15T08:23:55.317Z,19.57
2022-12-15T08:27:00.307Z,17.37
2022-12-15T08:30:04.238Z,17.87
2022-12-15T08:33:09.552Z,18.17
2022-12-15T08:36:15.268Z,18.27
2022-12-15T08:39:19.049Z,17.33
2022-12-15T08:42:22.787Z,17.53
2022-12-15T08:45:26.508Z,16.57
2022-12-15T08:48:31.652Z,16.90
2022-12-15T08:51:35.741Z,17.10
2022-12-15T08:54:39.331Z,15.93
2022-12-15T08:57:43.191Z,15.13
2022-12-15T09:00:47.528Z,15.93
2022-12-15T09:03:54.145Z,16.80
2022-12-15T09:06:58.369Z,14.73
2022-12-15T09:10:02.278Z,12.60
2022-12-15T09:13:06.044Z,13.17
2022-12-15T09:16:14.797Z,13.80
2022-12-15T09:19:20.521Z,13.57
2022-12-15T09:22:24.381Z,13.57
2022-12-15T09:25:28.082Z,12.57
2022-12-15T09:28:32.307Z,13.30
2022-12-15T09:31:39.317Z,15.13
2022-12-15T09:34:44.561Z,13.03
2022-12-15T09:37:51.770Z,12.07
2022-12-15T09:40:56.253Z,12.60
2022-12-15T09:44:04.042Z,13.73
2022-12-15T09:47:18.655Z,14.13
2022-12-15T09:50:29.571Z,13.40
2022-12-15T09:53:57.720Z,13.37
2022-12-15T09:56:59.639Z,12.40
2022-12-15T10:00:21.459Z,13.10
2022-12-15T10:03:34.953Z,13.77
2022-12-15T10:06:50.654Z,12.73
2022-12-15T10:09:54.813Z,12.10
2022-12-15T10:13:04.511Z,13.43
2022-12-15T10:16:19.939Z,12.63
2022-12-15T10:19:33.101Z,12.97
2022-12-15T10:22:39.286Z,12.77
2022-12-15T10:25:48.559Z,12.40
2022-12-15T10:29:07.962Z,12.40
2022-12-15T10:32:20.088Z,13.10
2022-12-15T10:35:25.663Z,14.10
2022-12-15T10:38:38.064Z,11.20
2022-12-15T10:41:41.851Z,13.00
2022-12-15T10:44:50.616Z,13.57
2022-12-15T10:48:02.748Z,13.57
2022-12-15T10:51:16.922Z,13.70
2022-12-15T10:54:23.287Z,14.20
2022-12-15T10:57:30.629Z,14.80
2022-12-15T11:00:35.576Z,13.97
2022-12-15T11:03:40.925Z,14.30
2022-12-15T11:06:45.229Z,14.37
2022-12-15T11:09:59.902Z,14.10
2022-12-15T11:13:16.067Z,15.30
2022-12-15T11:16:21.007Z,16.27
2022-12-15T11:19:37.620Z,15.40
2022-12-15T11:22:45.981Z,15.00
2022-12-15T11:26:08.489Z,15.20
2022-12-15T11:29:23.068Z,15.93
2022-12-15T11:32:30.151Z,15.50
2022-12-15T11:35:48.990Z,14.87
2022-12-15T11:39:01.439Z,16.10
2022-12-15T11:42:13.481Z,15.30
2022-12-15T11:45:22.490Z,17.17
2022-12-15T11:48:36.652Z,15.97
2022-12-15T11:51:45.909Z,14.13
2022-12-15T11:54:57.175Z,12.60
2022-12-15T11:58:20.680Z,12.97
2022-12-15T12:01:51.622Z,12.50
2022-12-15T12:05:15.720Z,20.77
2022-12-15T12:08:36.767Z,13.90
2022-12-15T12:11:46.307Z,13.90
2022-12-15T12:15:09.527Z,14.17
2022-12-15T12:18:19.936Z,13.30
2022-12-15T12:21:29.081Z,14.57
2022-12-15T12:24:38.910Z,14.60
2022-12-15T12:27:50.483Z,14.97
2022-12-15T12:30:59.908Z,13.97
2022-12-15T12:34:10.761Z,15.73
2022-12-15T12:37:23.170Z,15.37
2022-12-15T12:40:32.899Z,18.00
2022-12-15T12:43:41.957Z,75.80
2022-12-15T12:46:51.571Z,25.40
2022-12-15T12:49:59.212Z,16.13
2022-12-15T12:53:04.837Z,16.20
2022-12-15T12:56:08.962Z,14.87
2022-12-15T12:59:42.328Z,14.97
2022-12-15T13:02:55.754Z,14.30
2022-12-15T13:06:00.097Z,15.70
2022-12-15T13:09:23.871Z,15.47
2022-12-15T13:12:51.986Z,17.83
2022-12-15T13:16:06.450Z,17.53
2022-12-15T13:19:11.747Z,19.07
2022-12-15T13:22:26.477Z,17.87
2022-12-15T13:25:42.210Z,19.27
2022-12-15T13:28:51.544Z,17.27
2022-12-15T13:31:55.599Z,19.20
2022-12-15T13:35:06.521Z,17.00
2022-12-15T13:38:19.109Z,22.30
2022-12-15T13:41:26.442Z,22.43
2022-12-15T13:44:33.871Z,20.83
2022-12-15T13:47:38.328Z,19.30
2022-12-15T13:50:51.445Z,18.07
2022-12-15T13:54:00.421Z,26.53
2022-12-15T13:57:06.698Z,19.50
2022-12-15T14:00:18.858Z,17.30
2022-12-15T14:03:23.206Z,16.07
2022-12-15T14:06:31.390Z,15.77
2022-12-15T14:09:40.227Z,15.27
2022-12-15T14:12:44.297Z,19.77
2022-12-15T14:15:52.567Z,16.20
2022-12-15T14:19:06.876Z,16.17
2022-12-15T14:22:30.730Z,15.17
2022-12-15T14:25:34.777Z,17.03
2022-12-15T14:28:40.703Z,22.67
2022-12-15T14:31:48.473Z,26.30
2022-12-15T14:34:52.471Z,21.43
2022-12-15T14:38:00.111Z,22.23
2022-12-15T14:41:06.061Z,23.07
2022-12-15T14:44:31.477Z,32.63
2022-12-15T14:47:42.282Z,34.30
2022-12-15T14:50:49.338Z,44.23
2022-12-15T14:53:56.992Z,37.10
2022-12-15T14:57:05.672Z,48.23
2022-12-15T15:00:26.177Z,45.07
2022-12-15T15:03:38.585Z,45.43
2022-12-15T15:06:44.384Z,45.43
2022-12-15T15:09:54.518Z,51.10
2022-12-15T15:12:58.428Z,51.07
2022-12-15T15:16:06.712Z,67.33
2022-12-15T15:19:21.207Z,59.80
2022-12-15T15:22:41.889Z,58.53
2022-12-15T15:25:54.082Z,52.63
2022-12-15T15:28:58.125Z,51.07
2022-12-15T15:32:07.962Z,44.40
2022-12-15T15:35:11.802Z,47.63
2022-12-15T15:38:23.297Z,48.10
2022-12-15T15:41:32.075Z,46.27
2022-12-15T15:44:35.783Z,51.00
2022-12-15T15:47:39.722Z,93.13
2022-12-15T15:50:44.741Z,43.50
2022-12-15T15:53:49.031Z,44.73
2022-12-15T15:56:54.228Z,46.13
2022-12-15T15:59:59.903Z,50.90
2022-12-15T16:03:03.827Z,43.17
2022-12-15T16:06:16.091Z,40.37
2022-12-15T16:09:20.000Z,43.67
2022-12-15T16:12:29.853Z,47.23
2022-12-15T16:15:33.735Z,45.97
2022-12-15T16:18:37.493Z,60.57
2022-12-15T16:21:42.248Z,54.87
2022-12-15T16:24:46.264Z,68.00
2022-12-15T16:27:51.534Z,80.07
2022-12-15T16:30:55.984Z,76.27
2022-12-15T16:34:00.548Z,72.10
2022-12-15T16:37:04.820Z,47.33
2022-12-15T16:40:17.207Z,54.23
2022-12-15T16:43:23.929Z,52.50
2022-12-15T16:46:27.765Z,47.87
2022-12-15T16:49:33.971Z,45.43
2022-12-15T16:52:44.773Z,54.10
2022-12-15T16:55:50.148Z,50.77
2022-12-15T16:59:15.449Z,50.73
2022-12-15T17:02:27.260Z,55.10
2022-12-15T17:05:34.943Z,47.57
2022-12-15T17:08:41.609Z,49.90
2022-12-15T17:11:45.335Z,57.97
2022-12-15T17:14:50.627Z,79.60
2022-12-15T17:17:56.194Z,81.70
2022-12-15T17:21:04.688Z,66.10
2022-12-15T17:24:13.661Z,74.80
2022-12-15T17:27:27.953Z,49.00
2022-12-15T17:30:33.214Z,54.20
2022-12-15T17:33:36.996Z,71.70
2022-12-15T17:36:41.001Z,59.40
2022-12-15T17:39:51.262Z,54.40
2022-12-15T17:42:55.408Z,60.60
2022-12-15T17:46:00.769Z,63.67
2022-12-15T17:49:04.848Z,76.50
2022-12-15T17:52:18.026Z,62.80
2022-12-15T17:55:34.614Z,63.63
2022-12-15T17:58:39.760Z,63.67
2022-12-15T18:01:45.157Z,70.57
2022-12-15T18:04:48.954Z,68.73
2022-12-15T18:07:56.502Z,75.23
2022-12-15T18:11:00.478Z,80.40
2022-12-15T18:14:05.018Z,76.93
2022-12-15T18:17:10.262Z,79.27
2022-12-15T18:20:14.034Z,86.87
2022-12-15T18:23:20.126Z,107.70
2022-12-15T18:26:24.038Z,126.60
2022-12-15T18:29:27.809Z,107.47
2022-12-15T18:32:38.440Z,82.97
2022-12-15T18:35:43.761Z,80.53
2022-12-15T18:38:47.533Z,76.50
2022-12-15T18:41:52.128Z,72.53
2022-12-15T18:44:56.911Z,66.23
2022-12-15T18:48:02.119Z,69.07
2022-12-15T18:51:16.491Z,66.67
2022-12-15T18:54:22.527Z,62.80
2022-12-15T18:57:30.877Z,66.07
2022-12-15T19:00:35.191Z,61.60
2022-12-15T19:03:41.311Z,66.20
2022-12-15T19:06:46.418Z,74.90
2022-12-15T19:09:51.371Z,92.60
2022-12-15T19:12:58.533Z,84.03
2022-12-15T19:16:06.122Z,82.30
2022-12-15T19:19:31.186Z,72.67
2022-12-15T19:22:35.121Z,71.60
2022-12-15T19:25:39.982Z,65.87
2022-12-15T19:28:47.912Z,63.27
2022-12-15T19:31:52.292Z,62.60
2022-12-15T19:34:57.596Z,63.13
2022-12-15T19:38:03.190Z,63.67
2022-12-15T19:41:07.081Z,62.93
2022-12-15T19:44:16.020Z,72.80
2022-12-15T19:47:19.908Z,66.77
2022-12-15T19:50:27.468Z,63.73
2022-12-15T19:53:32.616Z,70.70
2022-12-15T19:56:36.944Z,67.03
2022-12-15T19:59:40.660Z,64.50
2022-12-15T20:02:44.869Z,66.67
2022-12-15T20:05:52.219Z,66.23
2022-12-15T20:08:57.565Z,65.80
2022-12-15T20:12:01.655Z,66.60
2022-12-15T20:15:19.346Z,67.63
2022-12-15T20:18:23.649Z,67.63
2022-12-15T20:21:32.835Z,72.17
2022-12-15T20:24:37.175Z,63.70
2022-12-15T20:27:41.048Z,60.30
2022-12-15T20:30:45.639Z,70.63
2022-12-15T20:33:49.979Z,79.40
2022-12-15T20:36:55.199Z,74.90
2022-12-15T20:39:58.942Z,71.87
2022-12-15T20:43:02.850Z,63.73
2022-12-15T20:46:08.749Z,59.50
2022-12-15T20:49:17.920Z,57.17
2022-12-15T20:52:26.456Z,47.17
2022-12-15T20:55:30.601Z,50.80
2022-12-15T20:58:40.421Z,51.80
2022-12-15T21:01:45.583Z,51.30
2022-12-15T21:04:49.970Z,49.87
2022-12-15T21:07:55.225Z,57.23
2022-12-15T21:11:02.925Z,51.60
2022-12-15T21:14:15.595Z,44.70
2022-12-15T21:17:21.249Z,51.37
2022-12-15T21:20:25.088Z,50.57
2022-12-15T21:23:32.465Z,65.33
2022-12-15T21:26:36.398Z,66.77
2022-12-15T21:29:40.048Z,59.33
2022-12-15T21:32:43.940Z,55.33
2022-12-15T21:35:49.164Z,51.53
2022-12-15T21:38:54.916Z,49.57
2022-12-15T21:42:01.609Z,41.87
2022-12-15T21:45:14.139Z,39.10
2022-12-15T21:48:35.635Z,35.40
2022-12-15T21:51:41.040Z,38.10
2022-12-15T21:54:46.249Z,36.60
2022-12-15T21:57:50.029Z,37.13
2022-12-15T22:00:55.699Z,37.83
2022-12-15T22:04:03.109Z,36.70
2022-12-15T22:07:08.177Z,35.03
2022-12-15T22:10:13.628Z,34.03
2022-12-15T22:13:20.857Z,35.00
2022-12-15T22:16:25.323Z,34.87
2022-12-15T22:19:29.416Z,36.30
2022-12-15T22:22:33.366Z,34.40
2022-12-15T22:25:38.668Z,35.10
2022-12-15T22:28:42.527Z,35.00
2022-12-15T22:31:46.501Z,34.87
2022-12-15T22:34:50.495Z,38.33
2022-12-15T22:37:56.548Z,37.87
2022-12-15T22:41:02.716Z,40.50
2022-12-15T22:44:06.776Z,40.67
2022-12-15T22:47:12.429Z,40.70
2022-12-15T22:50:19.215Z,36.17
2022-12-15T22:53:29.118Z,33.17
2022-12-15T22:56:40.961Z,31.83
2022-12-15T22:59:50.899Z,30.10
2022-12-15T23:02:55.533Z,30.40
2022-12-15T23:06:00.158Z,29.83
2022-12-15T23:09:03.856Z,28.70
2022-12-15T23:12:09.513Z,27.80
2022-12-15T23:15:30.279Z,29.30
2022-12-15T23:18:34.040Z,27.20
2022-12-15T23:21:38.179Z,27.27
2022-12-15T23:24:42.135Z,28.93
2022-12-15T23:27:47.450Z,27.90
2022-12-15T23:30:53.228Z,27.20
2022-12-15T23:33:57.125Z,28.43
2022-12-15T23:37:01.142Z,27.40
2022-12-15T23:40:05.930Z,26.23
2022-12-15T23:43:11.071Z,26.83
2022-12-15T23:46:15.261Z,27.37
2022-12-15T23:49:19.078Z,26.67
2022-12-15T23:52:22.856Z,25.20
2022-12-15T23:55:26.623Z,27.67
2022-12-15T23:58:31.800Z,26.07
